Time;durP1;ratioP1;P1;durP2;ratioP2;P2;SDS_P1;SDS_P2;PMS_P1;PMS_P2;Temp;Humidity;BMP_temperature;BMP_pressure;BME280_temperature;BME280_humidity;BME280_pressure;Samples;Min_cycle;Max_cycle;Signal;HPM_P1;HPM_P2
2022/12/20 00:01:49;;;;;;;10.27;4.22;;;;;;;;;;4909529;29;20131;-74
2022/12/20 00:04:15;;;;;;;5.20;2.85;;;;;;;;;;4909746;29;20111;-73
2022/12/20 00:06:40;;;;;;;10.93;4.30;;;;;;;;;;4911281;29;20035;-74
2022/12/20 00:09:07;;;;;;;10.80;3.95;;;;;;;;;;4908808;29;20067;-74
2022/12/20 00:11:34;;;;;;;9.93;3.78;;;;;;;;;;4910607;29;20466;-75
2022/12/20 00:14:00;;;;;;;8.57;3.88;;;;;;;;;;4915783;29;20508;-74
2022/12/20 00:16:27;;;;;;;11.32;3.88;;;;;;;;;;4918000;29;20036;-75
2022/12/20 00:18:56;;;;;;;10.55;4.05;;;;;;;;;;4917973;29;20044;-74
2022/12/20 00:21:22;;;;;;;10.00;4.55;;;;;;;;;;4924138;29;20059;-75
2022/12/20 00:23:48;;;;;;;8.13;4.15;;;;;;;;;;4916447;29;20059;-74
2022/12/20 00:26:17;;;;;;;8.73;3.45;;;;;;;;;;4916823;29;20040;-74
2022/12/20 00:28:45;;;;;;;11.25;3.92;;;;;;;;;;4914492;29;20031;-72
2022/12/20 00:31:14;;;;;;;7.63;3.53;;;;;;;;;;4928125;29;20557;-73
2022/12/20 00:33:41;;;;;;;10.55;4.30;;;;;;;;;;4905768;29;20475;-74
2022/12/20 00:36:08;;;;;;;8.68;4.38;;;;;;;;;;4905557;29;20053;-74
2022/12/20 00:38:35;;;;;;;14.45;4.47;;;;;;;;;;4913663;29;20047;-74
2022/12/20 00:41:09;;;;;;;9.02;4.13;;;;;;;;;;4908923;29;20032;-74
2022/12/20 00:43:36;;;;;;;11.02;3.60;;;;;;;;;;4895443;29;20047;-74
2022/12/20 00:46:03;;;;;;;7.68;3.65;;;;;;;;;;4909474;29;20028;-74
2022/12/20 00:48:30;;;;;;;10.45;4.53;;;;;;;;;;4906481;29;20562;-74
2022/12/20 00:51:01;;;;;;;9.55;3.97;;;;;;;;;;4907437;29;20063;-75
2022/12/20 00:53:28;;;;;;;8.82;3.95;;;;;;;;;;4905142;29;20044;-74
2022/12/20 00:55:57;;;;;;;9.40;3.67;;;;;;;;;;4919698;29;20270;-74
2022/12/20 00:58:23;;;;;;;13.43;4.55;;;;;;;;;;4911251;29;20049;-74
2022/12/20 01:00:51;;;;;;;9.60;3.55;;;;;;;;;;4909937;29;20039;-73
2022/12/20 01:03:17;;;;;;;8.80;4.47;;;;;;;;;;4907605;29;20047;-73
2022/12/20 01:06:03;;;;;;;9.02;3.85;;;;;;;;;;4910274;29;20056;-73
2022/12/20 01:08:30;;;;;;;8.50;4.10;;;;;;;;;;4914884;29;20509;-72
2022/12/20 01:10:59;;;;;;;7.38;3.75;;;;;;;;;;4907506;29;20394;-73
2022/12/20 01:13:25;;;;;;;9.95;3.78;;;;;;;;;;4905482;29;20040;-74
2022/12/20 01:15:51;;;;;;;11.90;4.15;;;;;;;;;;4913702;29;20027;-74
2022/12/20 01:18:17;;;;;;;9.93;3.88;;;;;;;;;;4909233;29;20398;-73
2022/12/20 01:20:43;;;;;;;11.90;4.00;;;;;;;;;;4909895;29;20482;-75
2022/12/20 01:23:09;;;;;;;7.05;3.80;;;;;;;;;;4907002;29;20050;-75
2022/12/20 01:25:34;;;;;;;8.77;3.70;;;;;;;;;;4902685;29;20123;-74
2022/12/20 01:28:06;;;;;;;9.98;3.22;;;;;;;;;;4910588;29;20040;-73
2022/12/20 01:30:32;;;;;;;18.42;5.05;;;;;;;;;;4911840;29;20046;-73
2022/12/20 01:33:00;;;;;;;9.90;3.78;;;;;;;;;;4910180;29;20115;-74
2022/12/20 01:35:26;;;;;;;12.25;3.70;;;;;;;;;;4911036;29;20047;-73
2022/12/20 01:37:52;;;;;;;12.25;3.70;;;;;;;;;;4914299;29;20032;-74
2022/12/20 01:40:18;;;;;;;11.15;4.57;;;;;;;;;;4903397;29;20040;-73
2022/12/20 01:42:44;;;;;;;7.95;4.15;;;;;;;;;;4910236;29;20530;-73
2022/12/20 01:45:24;;;;;;;7.05;3.72;;;;;;;;;;4914082;29;20060;-74
2022/12/20 01:47:50;;;;;;;9.93;3.40;;;;;;;;;;4908225;29;20062;-74
2022/12/20 01:50:16;;;;;;;11.38;4.00;;;;;;;;;;4906258;29;20537;-74
2022/12/20 01:52:45;;;;;;;10.40;3.83;;;;;;;;;;4910007;29;20032;-73
2022/12/20 01:55:18;;;;;;;11.23;5.07;;;;;;;;;;4910853;29;20032;-73
2022/12/20 01:57:58;;;;;;;8.85;4.20;;;;;;;;;;4909989;29;20149;-74
2022/12/20 02:00:24;;;;;;;9.05;3.47;;;;;;;;;;4907757;29;20043;-75
2022/12/20 02:02:50;;;;;;;8.77;3.88;;;;;;;;;;4911170;29;20442;-73
2022/12/20 02:05:19;;;;;;;12.57;4.20;;;;;;;;;;4910211;29;20055;-75
2022/12/20 02:07:51;;;;;;;7.28;3.78;;;;;;;;;;4908036;29;20044;-72
2022/12/20 02:10:25;;;;;;;8.88;4.13;;;;;;;;;;4908893;29;20028;-73
2022/12/20 02:13:00;;;;;;;8.10;4.20;;;;;;;;;;4907546;29;20028;-72
2022/12/20 02:15:31;;;;;;;9.95;4.22;;;;;;;;;;4902416;29;20029;-73
2022/12/20 02:18:22;;;;;;;6.63;3.42;;;;;;;;;;4912174;29;20028;-72
2022/12/20 02:21:11;;;;;;;9.65;3.40;;;;;;;;;;4914943;29;20431;-73
2022/12/20 02:23:52;;;;;;;9.00;5.03;;;;;;;;;;4908519;29;20398;-72
2022/12/20 02:26:41;;;;;;;8.20;3.60;;;;;;;;;;4906748;29;20028;-72
2022/12/20 02:29:31;;;;;;;8.20;4.38;;;;;;;;;;4905448;29;20035;-73
2022/12/20 02:32:23;;;;;;;11.23;4.35;;;;;;;;;;4903792;29;20036;-74
2022/12/20 02:34:49;;;;;;;8.10;3.65;;;;;;;;;;4910107;29;20040;-74
2022/12/20 02:37:16;;;;;;;9.63;4.05;;;;;;;;;;4912476;29;20024;-74
2022/12/20 02:39:45;;;;;;;7.40;3.60;;;;;;;;;;4906392;29;20407;-74
2022/12/20 02:42:18;;;;;;;8.57;4.07;;;;;;;;;;4911870;29;20032;-74
2022/12/20 02:45:14;;;;;;;14.98;4.38;;;;;;;;;;4923728;29;20095;-74
2022/12/20 02:47:51;;;;;;;6.25;3.42;;;;;;;;;;4909492;29;20060;-73
2022/12/20 02:50:22;;;;;;;9.00;3.20;;;;;;;;;;4908613;29;20402;-73
2022/12/20 02:52:50;;;;;;;11.68;3.85;;;;;;;;;;4911861;29;20132;-74
2022/12/20 02:55:16;;;;;;;8.18;3.45;;;;;;;;;;4909896;29;20028;-73
2022/12/20 02:57:49;;;;;;;6.25;3.35;;;;;;;;;;4911965;29;20028;-74
2022/12/20 03:00:22;;;;;;;7.22;3.28;;;;;;;;;;4911798;29;20036;-73
2022/12/20 03:05:44;;;;;;;6.32;2.97;;;;;;;;;;4900253;29;20037;-73
2022/12/20 03:08:10;;;;;;;8.10;3.50;;;;;;;;;;4901277;29;20048;-74
2022/12/20 03:10:39;;;;;;;8.05;4.78;;;;;;;;;;4901615;29;20031;-73
2022/12/20 03:13:05;;;;;;;15.80;4.95;;;;;;;;;;4901587;29;20071;-73
2022/12/20 03:15:36;;;;;;;11.18;4.32;;;;;;;;;;4893932;29;20028;-73
2022/12/20 03:18:03;;;;;;;8.85;3.97;;;;;;;;;;4903583;29;20368;-73
2022/12/20 03:20:32;;;;;;;9.18;3.95;;;;;;;;;;4902406;29;20045;-72
2022/12/20 03:22:58;;;;;;;10.02;3.80;;;;;;;;;;4904294;29;20047;-73
2022/12/20 03:25:27;;;;;;;11.45;3.75;;;;;;;;;;4898908;29;20037;-73
2022/12/20 03:27:53;;;;;;;8.30;3.38;;;;;;;;;;4902341;29;20048;-73
2022/12/20 03:30:24;;;;;;;7.28;3.78;;;;;;;;;;4904397;29;20038;-72
2022/12/20 03:32:49;;;;;;;7.72;3.53;;;;;;;;;;4901253;29;20047;-73
2022/12/20 03:35:16;;;;;;;8.43;4.22;;;;;;;;;;4908935;29;20405;-73
2022/12/20 03:37:42;;;;;;;10.43;3.88;;;;;;;;;;4910023;29;20036;-73
2022/12/20 03:40:10;;;;;;;10.50;4.45;;;;;;;;;;4905598;29;20055;-73
2022/12/20 03:42:36;;;;;;;7.93;3.78;;;;;;;;;;4899206;29;20040;-73
2022/12/20 03:45:05;;;;;;;7.45;3.60;;;;;;;;;;4909269;29;20035;-73
2022/12/20 03:47:31;;;;;;;8.55;3.05;;;;;;;;;;4906801;29;20068;-72
2022/12/20 03:49:57;;;;;;;5.53;2.92;;;;;;;;;;4909344;29;20091;-72
2022/12/20 03:52:22;;;;;;;7.53;3.97;;;;;;;;;;4907313;29;20479;-73
2022/12/20 03:54:48;;;;;;;9.18;3.85;;;;;;;;;;4909225;29;20043;-73
2022/12/20 03:57:18;;;;;;;10.98;4.70;;;;;;;;;;4908180;29;20040;-73
2022/12/20 03:59:49;;;;;;;17.15;4.97;;;;;;;;;;4906856;29;20029;-73
2022/12/20 04:02:18;;;;;;;12.18;5.30;;;;;;;;;;4907863;29;20111;-74
2022/12/20 04:04:43;;;;;;;14.82;5.60;;;;;;;;;;4911837;29;20080;-73
2022/12/20 04:07:09;;;;;;;14.32;6.28;;;;;;;;;;4886347;29;20537;-73
2022/12/20 04:09:37;;;;;;;16.02;5.53;;;;;;;;;;4900249;29;20168;-74
2022/12/20 04:12:08;;;;;;;13.98;5.68;;;;;;;;;;4904218;29;20040;-75
2022/12/20 04:14:36;;;;;;;13.32;6.15;;;;;;;;;;4899923;29;20040;-74
2022/12/20 04:17:03;;;;;;;15.07;6.03;;;;;;;;;;4907853;29;20095;-73
2022/12/20 04:19:30;;;;;;;14.80;6.03;;;;;;;;;;4899179;29;20537;-74
2022/12/20 04:21:57;;;;;;;19.75;9.65;;;;;;;;;;4905357;29;20048;-74
2022/12/20 04:24:26;;;;;;;22.98;10.25;;;;;;;;;;4904391;29;20043;-73
2022/12/20 04:27:04;;;;;;;28.05;11.13;;;;;;;;;;4904273;29;20092;-72
2022/12/20 04:29:30;;;;;;;23.55;13.52;;;;;;;;;;4902777;29;20486;-74
2022/12/20 04:31:57;;;;;;;19.52;10.10;;;;;;;;;;4903529;29;20463;-74
2022/12/20 04:34:24;;;;;;;28.23;12.80;;;;;;;;;;4904088;29;20088;-73
2022/12/20 04:36:52;;;;;;;19.98;11.80;;;;;;;;;;4902540;29;20055;-74
2022/12/20 04:39:29;;;;;;;22.58;9.30;;;;;;;;;;4889536;29;20042;-74
2022/12/20 04:42:30;;;;;;;15.00;6.82;;;;;;;;;;4911494;29;20517;-74
2022/12/20 04:44:56;;;;;;;25.52;8.40;;;;;;;;;;4906085;28;20052;-74
2022/12/20 04:47:27;;;;;;;16.27;7.85;;;;;;;;;;4906683;29;20054;-74
2022/12/20 04:49:54;;;;;;;16.50;7.28;;;;;;;;;;4904822;29;20131;-74
2022/12/20 04:55:07;;;;;;;11.40;5.25;;;;;;;;;;4903300;29;20199;-73
2022/12/20 04:57:33;;;;;;;12.27;4.97;;;;;;;;;;4905616;29;20042;-74
2022/12/20 05:00:04;;;;;;;12.02;5.28;;;;;;;;;;4904099;29;20024;-74
2022/12/20 05:02:30;;;;;;;11.50;4.13;;;;;;;;;;4887520;29;20056;-74
2022/12/20 05:05:03;;;;;;;6.78;3.65;;;;;;;;;;4904372;29;20791;-73
2022/12/20 05:07:34;;;;;;;9.60;3.80;;;;;;;;;;4906836;29;20032;-71
2022/12/20 05:10:00;;;;;;;8.45;4.00;;;;;;;;;;4902794;29;20608;-72
2022/12/20 05:12:25;;;;;;;11.27;4.35;;;;;;;;;;4907705;29;20176;-73
2022/12/20 05:14:55;;;;;;;12.85;4.65;;;;;;;;;;4905379;29;20043;-73
2022/12/20 05:17:21;;;;;;;9.20;4.43;;;;;;;;;;4906947;29;20199;-74
2022/12/20 05:19:47;;;;;;;16.00;4.57;;;;;;;;;;4905243;29;20570;-73
2022/12/20 05:27:54;;;;;;;9.05;4.20;;;;;;;;;;4903609;29;20127;-72
2022/12/20 05:30:24;;;;;;;8.82;4.10;;;;;;;;;;4906994;29;20024;-74
2022/12/20 05:32:50;;;;;;;10.82;4.53;;;;;;;;;;4904886;29;20051;-74
2022/12/20 05:35:19;;;;;;;8.88;4.30;;;;;;;;;;4905502;29;20159;-74
2022/12/20 05:37:48;;;;;;;9.13;3.90;;;;;;;;;;4904967;29;20063;-74
2022/12/20 05:40:17;;;;;;;9.60;4.28;;;;;;;;;;4888178;29;20131;-74
2022/12/20 05:42:43;;;;;;;6.65;3.83;;;;;;;;;;4889837;29;20032;-74
2022/12/20 05:45:10;;;;;;;9.13;3.90;;;;;;;;;;4907137;29;20035;-72
2022/12/20 05:47:45;;;;;;;8.50;4.30;;;;;;;;;;4893894;29;20099;-73
2022/12/20 05:50:17;;;;;;;9.82;4.20;;;;;;;;;;4905874;29;20104;-76
2022/12/20 05:53:02;;;;;;;10.70;4.63;;;;;;;;;;4904744;29;20067;-76
2022/12/20 05:55:29;;;;;;;8.60;3.80;;;;;;;;;;4903090;29;20079;-76
2022/12/20 05:57:55;;;;;;;10.57;4.75;;;;;;;;;;4901938;29;20036;-74
2022/12/20 06:00:34;;;;;;;9.57;4.20;;;;;;;;;;4903054;29;20459;-75
2022/12/20 06:03:00;;;;;;;10.35;4.30;;;;;;;;;;4901913;29;20064;-76
2022/12/20 06:05:26;;;;;;;11.30;4.45;;;;;;;;;;4904306;29;20024;-77
2022/12/20 06:07:53;;;;;;;8.25;4.25;;;;;;;;;;4906090;29;20047;-77
2022/12/20 06:10:19;;;;;;;14.93;4.97;;;;;;;;;;4904580;29;20056;-77
2022/12/20 06:12:55;;;;;;;11.15;5.32;;;;;;;;;;4891188;29;20131;-77
2022/12/20 06:15:23;;;;;;;15.80;6.05;;;;;;;;;;4904524;29;20498;-77
2022/12/20 06:17:49;;;;;;;14.38;5.97;;;;;;;;;;4904692;29;20047;-76
2022/12/20 06:20:16;;;;;;;12.25;5.47;;;;;;;;;;4908832;29;20212;-76
2022/12/20 06:22:45;;;;;;;12.80;6.63;;;;;;;;;;4905019;29;20048;-77
2022/12/20 06:25:14;;;;;;;12.98;7.07;;;;;;;;;;4904181;29;20044;-77
2022/12/20 06:27:40;;;;;;;14.80;6.70;;;;;;;;;;4904278;29;21692;-78
2022/12/20 06:30:14;;;;;;;11.93;4.70;;;;;;;;;;4904161;29;20419;-76
2022/12/20 06:32:51;;;;;;;12.43;4.80;;;;;;;;;;4902944;29;20040;-76
2022/12/20 06:35:17;;;;;;;10.82;4.97;;;;;;;;;;4907195;29;20032;-76
2022/12/20 06:37:43;;;;;;;11.93;4.95;;;;;;;;;;4902237;29;20075;-76
2022/12/20 06:40:14;;;;;;;11.63;5.63;;;;;;;;;;4888439;29;20542;-75
2022/12/20 06:42:41;;;;;;;16.13;4.45;;;;;;;;;;4902714;29;20052;-77
2022/12/20 06:45:07;;;;;;;9.48;4.18;;;;;;;;;;4901745;29;20080;-76
2022/12/20 06:47:36;;;;;;;10.05;4.28;;;;;;;;;;4899480;29;20044;-77
2022/12/20 06:50:04;;;;;;;8.15;4.00;;;;;;;;;;4902852;29;20036;-77
2022/12/20 06:52:30;;;;;;;11.07;5.20;;;;;;;;;;4901628;29;20119;-77
2022/12/20 06:54:55;;;;;;;10.30;4.68;;;;;;;;;;4900992;29;20065;-77
2022/12/20 06:57:22;;;;;;;11.40;4.85;;;;;;;;;;4887142;29;20083;-76
2022/12/20 06:59:48;;;;;;;9.60;4.50;;;;;;;;;;4885826;29;20028;-76
2022/12/20 07:02:15;;;;;;;15.15;5.72;;;;;;;;;;4902619;29;20727;-75
2022/12/20 07:04:41;;;;;;;14.50;5.57;;;;;;;;;;4901516;29;20207;-76
2022/12/20 07:07:07;;;;;;;12.30;5.68;;;;;;;;;;4905117;29;20047;-76
2022/12/20 07:09:36;;;;;;;9.80;5.45;;;;;;;;;;4904106;29;20128;-75
2022/12/20 07:12:02;;;;;;;12.25;5.82;;;;;;;;;;4903918;29;20095;-76
2022/12/20 07:14:28;;;;;;;13.25;5.45;;;;;;;;;;4903876;29;20074;-76
2022/12/20 07:16:54;;;;;;;12.07;5.88;;;;;;;;;;4902411;29;20041;-75
2022/12/20 07:19:20;;;;;;;13.10;5.78;;;;;;;;;;4904714;29;20051;-77
2022/12/20 07:21:46;;;;;;;10.48;5.53;;;;;;;;;;4906113;29;20078;-77
2022/12/20 07:24:12;;;;;;;10.68;4.75;;;;;;;;;;4904468;29;20059;-77
2022/12/20 07:26:43;;;;;;;11.00;5.72;;;;;;;;;;4903278;29;20082;-75
2022/12/20 07:29:08;;;;;;;8.60;4.18;;;;;;;;;;4906262;29;20056;-74
2022/12/20 07:31:34;;;;;;;10.13;3.85;;;;;;;;;;4902822;29;20087;-78
2022/12/20 07:34:01;;;;;;;18.35;5.65;;;;;;;;;;4901385;29;20028;-78
2022/12/20 07:36:27;;;;;;;7.72;4.18;;;;;;;;;;4904206;29;20028;-76
2022/12/20 07:38:53;;;;;;;14.70;5.30;;;;;;;;;;4904559;29;20057;-77
2022/12/20 07:41:19;;;;;;;9.45;5.32;;;;;;;;;;4903017;29;20032;-76
2022/12/20 07:43:45;;;;;;;12.50;4.75;;;;;;;;;;4903805;29;20103;-76
2022/12/20 07:46:13;;;;;;;12.75;5.70;;;;;;;;;;4903900;29;20066;-75
2022/12/20 07:48:43;;;;;;;9.45;3.70;;;;;;;;;;4901158;29;20195;-77
2022/12/20 07:51:24;;;;;;;8.32;3.88;;;;;;;;;;4903990;29;20055;-77
2022/12/20 07:53:58;;;;;;;12.50;3.60;;;;;;;;;;4905900;29;20036;-77
2022/12/20 07:56:28;;;;;;;8.60;3.40;;;;;;;;;;4903696;29;20032;-76
2022/12/20 07:58:57;;;;;;;8.98;4.03;;;;;;;;;;4909130;29;20526;-76
2022/12/20 08:01:26;;;;;;;12.50;3.53;;;;;;;;;;4908719;29;20064;-76
2022/12/20 08:04:04;;;;;;;8.75;3.22;;;;;;;;;;4905104;29;20040;-77
2022/12/20 08:06:33;;;;;;;6.60;3.30;;;;;;;;;;4892106;29;20688;-75
2022/12/20 08:09:01;;;;;;;8.38;3.40;;;;;;;;;;4906335;29;20032;-73
2022/12/20 08:11:29;;;;;;;6.13;2.85;;;;;;;;;;4907047;29;20036;-74
2022/12/20 08:13:55;;;;;;;7.07;3.47;;;;;;;;;;4905568;29;20024;-74
2022/12/20 08:16:21;;;;;;;7.78;3.50;;;;;;;;;;4907978;29;20127;-75
2022/12/20 08:18:46;;;;;;;6.05;2.60;;;;;;;;;;4909504;29;20554;-78
2022/12/20 08:21:13;;;;;;;5.65;2.78;;;;;;;;;;4907369;29;20087;-74
2022/12/20 08:23:40;;;;;;;6.07;2.67;;;;;;;;;;4907367;29;20095;-75
2022/12/20 08:26:06;;;;;;;4.40;2.42;;;;;;;;;;4922833;29;20044;-75
2022/12/20 08:28:32;;;;;;;8.00;2.90;;;;;;;;;;4907614;29;20036;-76
2022/12/20 08:31:04;;;;;;;6.18;2.90;;;;;;;;;;4906779;29;20452;-74
2022/12/20 08:33:31;;;;;;;7.95;2.70;;;;;;;;;;4906602;29;20044;-78
2022/12/20 08:35:58;;;;;;;5.15;2.50;;;;;;;;;;4906273;29;20380;-76
2022/12/20 08:38:30;;;;;;;4.22;2.45;;;;;;;;;;4905964;29;20527;-75
2022/12/20 08:41:05;;;;;;;3.45;1.85;;;;;;;;;;4906641;29;20031;-74
2022/12/20 08:43:32;;;;;;;4.53;2.33;;;;;;;;;;4910593;29;20052;-77
2022/12/20 08:45:59;;;;;;;7.10;2.10;;;;;;;;;;4904271;29;20107;-77
2022/12/20 08:48:26;;;;;;;5.13;2.40;;;;;;;;;;4902131;29;20096;-74
2022/12/20 08:51:01;;;;;;;3.10;1.90;;;;;;;;;;4906458;29;20574;-76
2022/12/20 08:53:28;;;;;;;3.40;2.00;;;;;;;;;;4906938;29;20403;-76
2022/12/20 08:56:05;;;;;;;3.90;1.92;;;;;;;;;;4905455;29;20035;-73
2022/12/20 08:58:31;;;;;;;4.95;2.75;;;;;;;;;;4902641;29;20078;-78
2022/12/20 09:01:01;;;;;;;3.60;2.22;;;;;;;;;;4905863;29;20422;-76
2022/12/20 09:03:33;;;;;;;3.90;2.13;;;;;;;;;;4906442;29;20620;-76
2022/12/20 09:06:00;;;;;;;6.25;2.55;;;;;;;;;;4914971;29;20032;-77
2022/12/20 09:08:26;;;;;;;6.88;2.90;;;;;;;;;;4915861;29;20119;-76
2022/12/20 09:10:52;;;;;;;7.55;2.10;;;;;;;;;;4915683;29;20076;-75
2022/12/20 09:13:18;;;;;;;6.53;2.63;;;;;;;;;;4910228;29;20481;-77
2022/12/20 09:15:44;;;;;;;5.90;2.25;;;;;;;;;;4898083;29;20112;-76
2022/12/20 09:18:10;;;;;;;6.30;2.85;;;;;;;;;;4910650;29;20052;-76
2022/12/20 09:20:43;;;;;;;4.13;2.22;;;;;;;;;;4915697;29;20107;-77
2022/12/20 09:23:09;;;;;;;3.92;2.10;;;;;;;;;;4912232;29;20043;-76
2022/12/20 09:25:36;;;;;;;4.78;1.95;;;;;;;;;;4902195;29;20028;-75
2022/12/20 09:28:03;;;;;;;7.15;2.05;;;;;;;;;;4917073;29;20028;-77
2022/12/20 09:30:29;;;;;;;5.60;2.58;;;;;;;;;;4899855;29;20020;-77
2022/12/20 09:32:55;;;;;;;5.00;2.70;;;;;;;;;;4917146;29;20045;-78
2022/12/20 09:35:21;;;;;;;7.68;2.58;;;;;;;;;;4904970;29;20067;-75
2022/12/20 09:37:49;;;;;;;5.72;2.42;;;;;;;;;;4898799;29;20047;-76
2022/12/20 09:40:20;;;;;;;4.43;2.20;;;;;;;;;;4909268;29;20021;-76
2022/12/20 09:42:48;;;;;;;5.45;2.90;;;;;;;;;;4915716;29;20374;-76
2022/12/20 09:45:25;;;;;;;4.65;2.50;;;;;;;;;;4899181;29;20553;-74
2022/12/20 09:47:51;;;;;;;4.78;2.33;;;;;;;;;;4897091;29;20040;-77
2022/12/20 09:50:19;;;;;;;6.38;3.13;;;;;;;;;;4897227;29;20028;-75
2022/12/20 09:52:57;;;;;;;6.43;3.00;;;;;;;;;;4911605;29;20054;-79
2022/12/20 09:55:42;;;;;;;5.78;3.28;;;;;;;;;;4897711;29;20029;-78
2022/12/20 09:58:32;;;;;;;4.28;2.38;;;;;;;;;;4904934;29;20566;-77
2022/12/20 10:01:13;;;;;;;5.70;2.67;;;;;;;;;;4904016;29;20111;-77
2022/12/20 10:03:39;;;;;;;10.38;4.75;;;;;;;;;;4916424;29;20423;-75
2022/12/20 10:06:36;;;;;;;8.77;2.90;;;;;;;;;;4912274;29;20024;-78
2022/12/20 10:09:29;;;;;;;12.13;3.60;;;;;;;;;;4911647;29;20043;-77
2022/12/20 10:12:21;;;;;;;5.18;2.40;;;;;;;;;;4901520;29;20474;-77
2022/12/20 10:15:08;;;;;;;5.60;2.50;;;;;;;;;;4932286;29;20043;-76
2022/12/20 10:18:01;;;;;;;7.13;2.85;;;;;;;;;;4911620;29;20070;-79
2022/12/20 10:20:31;;;;;;;10.43;3.58;;;;;;;;;;4915712;29;20070;-77
2022/12/20 10:23:13;;;;;;;9.13;2.70;;;;;;;;;;4913795;29;20051;-77
2022/12/20 10:25:40;;;;;;;8.70;3.10;;;;;;;;;;4903177;29;20399;-75
2022/12/20 10:28:15;;;;;;;6.25;2.70;;;;;;;;;;4896629;29;20033;-77
2022/12/20 10:30:42;;;;;;;7.85;3.50;;;;;;;;;;4879759;29;20036;-76
2022/12/20 10:33:23;;;;;;;7.63;3.97;;;;;;;;;;4897415;29;20111;-76
2022/12/20 10:35:50;;;;;;;8.27;3.00;;;;;;;;;;4895319;29;20123;-77
2022/12/20 10:38:17;;;;;;;6.28;3.00;;;;;;;;;;4894588;29;20333;-77
2022/12/20 10:41:02;;;;;;;8.60;3.42;;;;;;;;;;4914016;29;20163;-75
2022/12/20 10:43:45;;;;;;;9.48;4.20;;;;;;;;;;4913361;29;20545;-75
2022/12/20 10:46:13;;;;;;;9.25;2.80;;;;;;;;;;4901980;29;20160;-76
2022/12/20 10:48:41;;;;;;;8.30;3.20;;;;;;;;;;4896081;29;20024;-77
2022/12/20 10:51:09;;;;;;;12.95;3.40;;;;;;;;;;4896241;29;20036;-77
2022/12/20 10:53:48;;;;;;;6.30;2.90;;;;;;;;;;4896538;29;20047;-79
2022/12/20 10:56:19;;;;;;;5.50;2.75;;;;;;;;;;4897329;29;20398;-78
2022/12/20 10:59:00;;;;;;;8.15;3.40;;;;;;;;;;4896316;29;20076;-77
2022/12/20 11:01:30;;;;;;;6.38;3.00;;;;;;;;;;4909332;29;20512;-78
2022/12/20 11:04:04;;;;;;;6.97;3.15;;;;;;;;;;4914024;29;20039;-77
2022/12/20 11:06:36;;;;;;;16.60;6.88;;;;;;;;;;4911651;29;20044;-77
2022/12/20 11:09:21;;;;;;;12.20;3.80;;;;;;;;;;4905872;29;20057;-78
2022/12/20 11:12:04;;;;;;;7.57;4.10;;;;;;;;;;4901765;29;20119;-78
2022/12/20 11:14:32;;;;;;;5.15;2.95;;;;;;;;;;4912529;29;20114;-77
2022/12/20 11:17:03;;;;;;;17.35;6.03;;;;;;;;;;4910929;29;20536;-76
2022/12/20 11:19:29;;;;;;;8.90;3.80;;;;;;;;;;4913964;29;20447;-78
2022/12/20 11:22:29;;;;;;;15.52;5.35;;;;;;;;;;4914354;29;20125;-75
2022/12/20 11:25:25;;;;;;;12.10;5.45;;;;;;;;;;4915227;29;20084;-78
2022/12/20 11:28:29;;;;;;;10.75;4.72;;;;;;;;;;4909655;29;20040;-75
2022/12/20 11:31:08;;;;;;;10.40;4.72;;;;;;;;;;4912374;29;20036;-79
2022/12/20 11:34:11;;;;;;;10.55;3.60;;;;;;;;;;4894955;29;20522;-78
2022/12/20 11:36:37;;;;;;;12.30;4.85;;;;;;;;;;4896126;29;20705;-78
2022/12/20 11:39:25;;;;;;;8.35;4.13;;;;;;;;;;4897106;29;20073;-75
2022/12/20 11:42:06;;;;;;;14.75;5.65;;;;;;;;;;4895200;29;20106;-77
2022/12/20 11:44:53;;;;;;;8.90;4.30;;;;;;;;;;4895417;29;20500;-76
2022/12/20 11:47:22;;;;;;;8.40;4.30;;;;;;;;;;4893464;29;20128;-76
2022/12/20 11:49:52;;;;;;;18.00;8.05;;;;;;;;;;4896055;29;20028;-77
2022/12/20 11:52:35;;;;;;;10.75;4.97;;;;;;;;;;4879656;29;20067;-74
2022/12/20 11:55:32;;;;;;;9.70;5.05;;;;;;;;;;4895350;29;20103;-75
2022/12/20 11:58:13;;;;;;;19.75;10.55;;;;;;;;;;4907236;29;20115;-75
2022/12/20 12:00:40;;;;;;;10.65;4.88;;;;;;;;;;4910129;29;20033;-77
2022/12/20 12:03:21;;;;;;;32.25;19.48;;;;;;;;;;4909647;29;20051;-76
2022/12/20 12:05:54;;;;;;;11.43;4.50;;;;;;;;;;4912548;29;20064;-78
2022/12/20 12:08:38;;;;;;;10.27;3.92;;;;;;;;;;4900744;29;20414;-79
2022/12/20 12:11:22;;;;;;;7.72;3.83;;;;;;;;;;4896959;29;20092;-77
2022/12/20 12:13:48;;;;;;;;;;;;;;;;;;4915389;29;20043;-78
2022/12/20 12:16:19;;;;;;;6.85;4.35;;;;;;;;;;4915131;29;20293;-76
2022/12/20 12:18:46;;;;;;;6.82;4.00;;;;;;;;;;4895414;29;20131;-77
2022/12/20 12:21:26;;;;;;;8.38;4.50;;;;;;;;;;4896266;29;20447;-77
2022/12/20 12:24:21;;;;;;;7.72;4.22;;;;;;;;;;4907191;29;20035;-76
2022/12/20 12:26:47;;;;;;;7.78;4.15;;;;;;;;;;4905946;29;20095;-77
2022/12/20 12:29:18;;;;;;;8.73;4.55;;;;;;;;;;4900670;29;20048;-77
2022/12/20 12:31:59;;;;;;;8.60;4.60;;;;;;;;;;4904397;29;20495;-77
2022/12/20 12:34:44;;;;;;;9.77;3.90;;;;;;;;;;4902002;29;20079;-76
2022/12/20 12:37:39;;;;;;;12.82;5.40;;;;;;;;;;4886837;29;20028;-75
2022/12/20 12:40:49;;;;;;;9.73;5.13;;;;;;;;;;4887749;29;20028;-76
2022/12/20 12:43:33;;;;;;;15.43;6.13;;;;;;;;;;4910041;29;20143;-77
2022/12/20 12:46:02;;;;;;;8.55;4.43;;;;;;;;;;4904595;29;20037;-76
2022/12/20 12:48:33;;;;;;;10.32;5.15;;;;;;;;;;4904251;29;20036;-77
2022/12/20 12:51:02;;;;;;;9.73;5.00;;;;;;;;;;4905876;29;20055;-75
2022/12/20 12:53:37;;;;;;;13.27;5.25;;;;;;;;;;4903700;29;20079;-76
2022/12/20 12:56:25;;;;;;;13.35;5.32;;;;;;;;;;4902781;29;20478;-78
2022/12/20 12:59:05;;;;;;;7.88;4.03;;;;;;;;;;4909147;29;20514;-76
2022/12/20 13:01:50;;;;;;;7.82;4.90;;;;;;;;;;4907564;29;20077;-75
2022/12/20 13:04:19;;;;;;;10.02;5.78;;;;;;;;;;4908925;29;20494;-76
2022/12/20 13:06:47;;;;;;;10.65;5.45;;;;;;;;;;4908098;29;20036;-78
2022/12/20 13:09:19;;;;;;;10.60;5.60;;;;;;;;;;4903454;29;20051;-77
2022/12/20 13:11:45;;;;;;;15.10;6.80;;;;;;;;;;4905043;29;20054;-74
2022/12/20 13:14:17;;;;;;;15.02;5.78;;;;;;;;;;4905317;29;20039;-75
2022/12/20 13:16:44;;;;;;;9.27;5.07;;;;;;;;;;4906331;29;20499;-75
2022/12/20 13:19:13;;;;;;;9.63;4.20;;;;;;;;;;4907513;29;20146;-75
2022/12/20 13:21:42;;;;;;;10.55;4.70;;;;;;;;;;4905157;29;20078;-79
2022/12/20 13:24:27;;;;;;;8.48;4.82;;;;;;;;;;4906334;29;20486;-79
2022/12/20 13:26:54;;;;;;;10.07;4.95;;;;;;;;;;4906865;29;20040;-77
2022/12/20 13:29:26;;;;;;;8.45;4.57;;;;;;;;;;4902828;29;20064;-76
2022/12/20 13:31:52;;;;;;;13.80;5.60;;;;;;;;;;4907032;29;20032;-77
2022/12/20 13:34:57;;;;;;;12.68;5.15;;;;;;;;;;4906417;29;20031;-77
2022/12/20 13:37:27;;;;;;;8.77;4.88;;;;;;;;;;4902975;29;20443;-77
2022/12/20 13:39:54;;;;;;;9.15;5.00;;;;;;;;;;4902667;29;20128;-76
2022/12/20 13:42:31;;;;;;;12.18;5.78;;;;;;;;;;4901615;29;20071;-76
2022/12/20 13:45:02;;;;;;;13.18;4.80;;;;;;;;;;4905689;29;20068;-76
2022/12/20 13:47:37;;;;;;;9.23;4.57;;;;;;;;;;4905284;29;20463;-77
2022/12/20 13:50:25;;;;;;;13.23;4.60;;;;;;;;;;4896440;29;20033;-77
2022/12/20 13:52:53;;;;;;;18.65;6.95;;;;;;;;;;4897031;29;20036;-77
2022/12/20 13:55:33;;;;;;;13.02;6.45;;;;;;;;;;4910259;29;20020;-77
2022/12/20 13:58:41;;;;;;;12.70;6.40;;;;;;;;;;4916783;29;20136;-77
2022/12/20 14:01:11;;;;;;;14.48;5.68;;;;;;;;;;4916930;29;20193;-77
2022/12/20 14:03:44;;;;;;;15.98;6.22;;;;;;;;;;4915394;29;20077;-76
2022/12/20 14:06:13;;;;;;;12.77;5.72;;;;;;;;;;4915621;29;20036;-77
2022/12/20 14:08:48;;;;;;;14.32;6.53;;;;;;;;;;4903807;29;20036;-77
2022/12/20 14:11:17;;;;;;;12.57;5.03;;;;;;;;;;4898030;29;20044;-78
2022/12/20 14:13:58;;;;;;;8.73;4.85;;;;;;;;;;4897999;29;20044;-77
2022/12/20 14:16:26;;;;;;;13.38;5.13;;;;;;;;;;4906939;29;20443;-77
2022/12/20 14:19:06;;;;;;;8.63;4.90;;;;;;;;;;4916328;29;20116;-73
2022/12/20 14:21:39;;;;;;;7.97;4.70;;;;;;;;;;4916131;29;20050;-76
2022/12/20 14:24:08;;;;;;;10.50;4.45;;;;;;;;;;4916243;29;20115;-76
2022/12/20 14:26:49;;;;;;;9.23;4.43;;;;;;;;;;4916476;29;20024;-78
2022/12/20 14:29:19;;;;;;;11.32;4.63;;;;;;;;;;4917496;29;20063;-76
2022/12/20 14:31:49;;;;;;;8.48;5.35;;;;;;;;;;4916239;29;20573;-74
2022/12/20 14:34:20;;;;;;;12.75;6.50;;;;;;;;;;4897223;29;20330;-76
2022/12/20 14:36:48;;;;;;;7.10;4.03;;;;;;;;;;4897101;29;20040;-75
2022/12/20 14:39:29;;;;;;;11.65;4.10;;;;;;;;;;4897105;29;20047;-76
2022/12/20 14:41:56;;;;;;;11.23;4.70;;;;;;;;;;4897763;29;20608;-74
2022/12/20 14:44:23;;;;;;;9.45;4.80;;;;;;;;;;4913454;29;20060;-75
2022/12/20 14:47:14;;;;;;;8.27;4.60;;;;;;;;;;4903849;29;20120;-74
2022/12/20 14:49:47;;;;;;;11.32;5.43;;;;;;;;;;4914899;29;20532;-76
2022/12/20 14:52:20;;;;;;;14.43;7.87;;;;;;;;;;4928152;29;20122;-75
2022/12/20 14:54:59;;;;;;;10.73;4.80;;;;;;;;;;4916627;29;20394;-75
2022/12/20 14:57:30;;;;;;;10.35;4.47;;;;;;;;;;4899034;29;20044;-75
2022/12/20 15:00:14;;;;;;;7.82;4.68;;;;;;;;;;4914971;29;20366;-75
2022/12/20 15:02:45;;;;;;;9.20;5.55;;;;;;;;;;4896987;29;20202;-74
2022/12/20 15:05:47;;;;;;;11.95;5.90;;;;;;;;;;4895332;29;20490;-75
2022/12/20 15:08:33;;;;;;;8.77;5.03;;;;;;;;;;4896445;29;20469;-74
2022/12/20 15:11:07;;;;;;;10.38;5.55;;;;;;;;;;4896080;29;20074;-73
2022/12/20 15:13:41;;;;;;;10.93;4.90;;;;;;;;;;4896209;29;20040;-74
2022/12/20 15:16:26;;;;;;;8.80;4.80;;;;;;;;;;4896475;29;20036;-75
2022/12/20 15:18:58;;;;;;;10.63;4.03;;;;;;;;;;4896464;29;20060;-75